sensor_id;sensor_type;location;lat;lon;timestamp;pressure;altitude;pressure_sealevel;temperature;humidity
28626;BME280;18905;42.668;23.364;2023-07-02T00:00:03;94496.38;;;19.04;100.00
28626;BME280;18905;42.668;23.364;2023-07-02T00:02:30;94485.72;;;18.78;100.00
28626;BME280;18905;42.668;23.364;2023-07-02T00:04:55;94488.03;;;18.76;100.00
28626;BME280;18905;42.668;23.364;2023-07-02T00:07:21;94468.06;;;18.69;100.00
28626;BME280;18905;42.668;23.364;2023-07-02T00:09:46;94478.66;;;18.74;100.00
28626;BME280;18905;42.668;23.364;2023-07-02T00:12:12;94498.94;;;18.69;100.00
28626;BME280;18905;42.668;23.364;2023-07-02T00:14:38;94490.88;;;18.94;100.00
28626;BME280;18905;42.668;23.364;2023-07-02T00:17:03;94454.13;;;18.91;100.00
28626;BME280;18905;42.668;23.364;2023-07-02T00:19:29;94494.13;;;19.27;100.00
28626;BME280;18905;42.668;23.364;2023-07-02T00:21:54;94468.28;;;19.21;100.00
28626;BME280;18905;42.668;23.364;2023-07-02T00:24:20;94489.91;;;19.47;100.00
28626;BME280;18905;42.668;23.364;2023-07-02T00:26:46;94436.28;;;19.25;100.00
28626;BME280;18905;42.668;23.364;2023-07-02T00:29:11;94467.13;;;19.19;100.00
28626;BME280;18905;42.668;23.364;2023-07-02T00:31:37;94459.31;;;19.21;100.00
28626;BME280;18905;42.668;23.364;2023-07-02T00:34:03;94487.94;;;19.48;100.00
28626;BME280;18905;42.668;23.364;2023-07-02T00:36:30;94477.75;;;19.41;100.00
28626;BME280;18905;42.668;23.364;2023-07-02T00:38:55;94498.50;;;19.42;100.00
28626;BME280;18905;42.668;23.364;2023-07-02T00:41:22;94442.06;;;19.06;100.00
28626;BME280;18905;42.668;23.364;2023-07-02T00:43:48;94484.41;;;19.40;100.00
28626;BME280;18905;42.668;23.364;2023-07-02T00:48:50;94511.84;;;19.61;100.00
28626;BME280;18905;42.668;23.364;2023-07-02T00:51:20;94488.34;;;19.57;100.00
28626;BME280;18905;42.668;23.364;2023-07-02T00:53:48;94475.00;;;19.41;100.00
28626;BME280;18905;42.668;23.364;2023-07-02T00:56:14;94494.59;;;19.40;100.00
28626;BME280;18905;42.668;23.364;2023-07-02T00:58:41;94462.28;;;18.84;100.00
28626;BME280;18905;42.668;23.364;2023-07-02T01:01:15;94507.75;;;19.10;100.00
28626;BME280;18905;42.668;23.364;2023-07-02T01:03:55;94504.63;;;19.18;100.00
28626;BME280;18905;42.668;23.364;2023-07-02T01:06:25;94478.81;;;19.05;100.00
28626;BME280;18905;42.668;23.364;2023-07-02T01:08:55;94492.16;;;19.21;100.00
28626;BME280;18905;42.668;23.364;2023-07-02T01:11:23;94480.69;;;18.94;100.00
28626;BME280;18905;42.668;23.364;2023-07-02T01:13:53;94500.41;;;19.24;100.00
28626;BME280;18905;42.668;23.364;2023-07-02T01:16:20;94504.63;;;19.18;100.00
28626;BME280;18905;42.668;23.364;2023-07-02T01:18:47;94520.75;;;19.23;100.00
28626;BME280;18905;42.668;23.364;2023-07-02T01:21:13;94513.72;;;19.29;100.00
28626;BME280;18905;42.668;23.364;2023-07-02T01:23:39;94506.69;;;19.32;100.00
28626;BME280;18905;42.668;23.364;2023-07-02T01:26:04;94478.91;;;19.26;100.00
28626;BME280;18905;42.668;23.364;2023-07-02T01:28:36;94417.97;;;18.47;100.00
28626;BME280;18905;42.668;23.364;2023-07-02T01:31:04;94467.75;;;18.84;100.00
28626;BME280;18905;42.668;23.364;2023-07-02T01:33:30;94410.59;;;18.51;100.00
28626;BME280;18905;42.668;23.364;2023-07-02T01:35:56;94474.09;;;19.09;100.00
28626;BME280;18905;42.668;23.364;2023-07-02T01:38:21;94478.84;;;19.19;100.00
28626;BME280;18905;42.668;23.364;2023-07-02T01:40:47;94405.94;;;18.62;100.00
28626;BME280;18905;42.668;23.364;2023-07-02T01:43:13;94441.16;;;18.81;100.00
28626;BME280;18905;42.668;23.364;2023-07-02T01:45:38;94384.22;;;18.22;100.00
28626;BME280;18905;42.668;23.364;2023-07-02T01:48:04;94470.78;;;18.62;100.00
28626;BME280;18905;42.668;23.364;2023-07-02T01:50:29;94474.72;;;18.71;100.00
28626;BME280;18905;42.668;23.364;2023-07-02T01:52:55;94473.13;;;18.63;100.00
28626;BME280;18905;42.668;23.364;2023-07-02T01:55:20;94466.81;;;18.52;100.00
28626;BME280;18905;42.668;23.364;2023-07-02T01:57:45;94448.78;;;18.37;100.00
28626;BME280;18905;42.668;23.364;2023-07-02T02:00:11;94434.53;;;18.14;100.00
28626;BME280;18905;42.668;23.364;2023-07-02T02:02:37;94447.84;;;18.16;100.00
28626;BME280;18905;42.668;23.364;2023-07-02T02:05:03;94463.25;;;18.45;100.00
28626;BME280;18905;42.668;23.364;2023-07-02T02:07:28;94445.56;;;18.28;100.00
28626;BME280;18905;42.668;23.364;2023-07-02T02:09:54;94434.53;;;18.14;100.00
28626;BME280;18905;42.668;23.364;2023-07-02T02:12:19;94428.03;;;17.79;100.00
28626;BME280;18905;42.668;23.364;2023-07-02T02:14:44;94438.63;;;17.84;100.00
28626;BME280;18905;42.668;23.364;2023-07-02T02:17:10;94454.72;;;17.99;100.00
28626;BME280;18905;42.668;23.364;2023-07-02T02:19:35;94446.94;;;18.01;100.00
28626;BME280;18905;42.668;23.364;2023-07-02T02:22:01;94463.09;;;18.24;100.00
28626;BME280;18905;42.668;23.364;2023-07-02T02:24:26;94442.22;;;17.98;100.00
28626;BME280;18905;42.668;23.364;2023-07-02T02:26:51;94443.50;;;18.11;100.00
28626;BME280;18905;42.668;23.364;2023-07-02T02:29:17;94461.78;;;18.04;100.00
28626;BME280;18905;42.668;23.364;2023-07-02T02:31:43;94433.53;;;17.82;100.00
28626;BME280;18905;42.668;23.364;2023-07-02T02:34:09;94457.59;;;18.20;100.00
28626;BME280;18905;42.668;23.364;2023-07-02T02:36:34;94456.47;;;18.25;100.00
28626;BME280;18905;42.668;23.364;2023-07-02T02:38:59;94451.91;;;18.43;100.00
28626;BME280;18905;42.668;23.364;2023-07-02T02:41:25;94434.38;;;18.47;100.00
28626;BME280;18905;42.668;23.364;2023-07-02T02:43:50;94434.44;;;18.58;100.00
28626;BME280;18905;42.668;23.364;2023-07-02T02:46:22;94431.59;;;18.40;100.00
28626;BME280;18905;42.668;23.364;2023-07-02T02:48:48;94449.34;;;18.71;100.00
28626;BME280;18905;42.668;23.364;2023-07-02T02:51:14;94429.38;;;18.63;100.00
28626;BME280;18905;42.668;23.364;2023-07-02T02:53:39;94436.03;;;18.08;100.00
28626;BME280;18905;42.668;23.364;2023-07-02T02:56:04;94469.13;;;18.47;100.00
28626;BME280;18905;42.668;23.364;2023-07-02T02:58:30;94450.25;;;18.31;100.00
28626;BME280;18905;42.668;23.364;2023-07-02T03:00:55;94446.66;;;18.17;100.00
28626;BME280;18905;42.668;23.364;2023-07-02T03:03:22;94432.34;;;18.34;100.00
28626;BME280;18905;42.668;23.364;2023-07-02T03:05:49;94425.19;;;18.19;100.00
28626;BME280;18905;42.668;23.364;2023-07-02T03:08:15;94474.66;;;18.57;100.00
28626;BME280;18905;42.668;23.364;2023-07-02T03:10:40;94467.56;;;18.49;100.00
28626;BME280;18905;42.668;23.364;2023-07-02T03:13:06;94396.13;;;17.90;100.00
28626;BME280;18905;42.668;23.364;2023-07-02T03:15:31;94446.28;;;18.18;100.00
28626;BME280;18905;42.668;23.364;2023-07-02T03:17:56;94449.47;;;18.27;100.00
28626;BME280;18905;42.668;23.364;2023-07-02T03:20:22;94437.81;;;18.34;100.00
28626;BME280;18905;42.668;23.364;2023-07-02T03:22:47;94433.66;;;18.61;100.00
28626;BME280;18905;42.668;23.364;2023-07-02T03:25:12;94426.53;;;18.39;100.00
28626;BME280;18905;42.668;23.364;2023-07-02T03:27:38;94432.53;;;18.65;100.00
28626;BME280;18905;42.668;23.364;2023-07-02T03:30:04;94463.38;;;18.66;100.00
28626;BME280;18905;42.668;23.364;2023-07-02T03:32:29;94475.59;;;18.89;100.00
28626;BME280;18905;42.668;23.364;2023-07-02T03:34:55;94464.66;;;18.82;100.00
28626;BME280;18905;42.668;23.364;2023-07-02T03:37:20;94439.84;;;18.44;100.00
28626;BME280;18905;42.668;23.364;2023-07-02T03:39:46;94484.69;;;18.39;100.00
28626;BME280;18905;42.668;23.364;2023-07-02T03:42:11;94489.44;;;18.46;100.00
28626;BME280;18905;42.668;23.364;2023-07-02T03:44:36;94491.13;;;18.68;100.00
28626;BME280;18905;42.668;23.364;2023-07-02T03:47:02;94484.13;;;18.77;100.00
28626;BME280;18905;42.668;23.364;2023-07-02T03:49:27;94478.19;;;18.58;100.00
28626;BME280;18905;42.668;23.364;2023-07-02T03:51:54;94477.38;;;18.54;100.00
28626;BME280;18905;42.668;23.364;2023-07-02T03:54:19;94477.75;;;18.49;100.00
28626;BME280;18905;42.668;23.364;2023-07-02T03:56:45;94483.72;;;18.68;100.00
28626;BME280;18905;42.668;23.364;2023-07-02T03:59:10;94467.97;;;18.48;100.00
28626;BME280;18905;42.668;23.364;2023-07-02T04:01:36;94469.13;;;18.47;100.00
28626;BME280;18905;42.668;23.364;2023-07-02T04:04:01;94465.09;;;18.30;100.00
28626;BME280;18905;42.668;23.364;2023-07-02T04:06:27;94478.38;;;18.32;100.00
28626;BME280;18905;42.668;23.364;2023-07-02T04:08:52;94457.06;;;18.01;100.00
28626;BME280;18905;42.668;23.364;2023-07-02T04:11:17;94495.47;;;18.18;100.00
28626;BME280;18905;42.668;23.364;2023-07-02T04:13:43;94471.25;;;18.17;100.00
28626;BME280;18905;42.668;23.364;2023-07-02T04:16:08;94469.69;;;18.19;100.00
28626;BME280;18905;42.668;23.364;2023-07-02T04:18:34;94466.53;;;18.14;100.00
28626;BME280;18905;42.668;23.364;2023-07-02T04:21:00;94484.38;;;17.97;100.00
28626;BME280;18905;42.668;23.364;2023-07-02T04:23:26;94505.94;;;18.13;100.00
28626;BME280;18905;42.668;23.364;2023-07-02T04:25:51;94532.94;;;18.21;100.00
28626;BME280;18905;42.668;23.364;2023-07-02T04:28:17;94517.88;;;17.94;100.00
28626;BME280;18905;42.668;23.364;2023-07-02T04:30:42;94534.22;;;17.87;100.00
28626;BME280;18905;42.668;23.364;2023-07-02T04:33:08;94499.66;;;17.62;100.00
28626;BME280;18905;42.668;23.364;2023-07-02T04:35:34;94453.34;;;17.36;100.00
28626;BME280;18905;42.668;23.364;2023-07-02T04:38:00;94497.97;;;17.50;100.00
28626;BME280;18905;42.668;23.364;2023-07-02T04:40:26;94503.97;;;17.30;100.00
28626;BME280;18905;42.668;23.364;2023-07-02T04:42:52;94544.53;;;17.64;100.00
28626;BME280;18905;42.668;23.364;2023-07-02T04:45:23;94544.09;;;17.62;100.00
28626;BME280;18905;42.668;23.364;2023-07-02T04:47:49;94550.84;;;17.72;100.00
28626;BME280;18905;42.668;23.364;2023-07-02T04:50:16;94546.63;;;17.81;100.00
28626;BME280;18905;42.668;23.364;2023-07-02T04:52:41;94536.16;;;17.87;100.00
28626;BME280;18905;42.668;23.364;2023-07-02T04:55:07;94552.13;;;18.25;100.00
28626;BME280;18905;42.668;23.364;2023-07-02T04:57:32;94565.16;;;18.45;100.00
28626;BME280;18905;42.668;23.364;2023-07-02T04:59:58;94519.84;;;18.37;100.00
28626;BME280;18905;42.668;23.364;2023-07-02T05:02:23;94549.28;;;18.61;100.00
28626;BME280;18905;42.668;23.364;2023-07-02T05:04:48;94555.28;;;18.84;100.00
28626;BME280;18905;42.668;23.364;2023-07-02T05:07:15;94536.44;;;18.65;100.00
28626;BME280;18905;42.668;23.364;2023-07-02T05:09:41;94546.53;;;18.58;100.00
28626;BME280;18905;42.668;23.364;2023-07-02T05:12:06;94570.13;;;18.83;100.00
28626;BME280;18905;42.668;23.364;2023-07-02T05:14:32;94560.25;;;18.65;100.00
28626;BME280;18905;42.668;23.364;2023-07-02T05:16:57;94553.66;;;18.76;100.00
28626;BME280;18905;42.668;23.364;2023-07-02T05:19:23;94571.41;;;19.00;100.00
28626;BME280;18905;42.668;23.364;2023-07-02T05:21:48;94546.00;;;18.99;100.00
28626;BME280;18905;42.668;23.364;2023-07-02T05:24:13;94559.38;;;19.18;100.00
28626;BME280;18905;42.668;23.364;2023-07-02T05:26:39;94545.66;;;19.11;100.00
28626;BME280;18905;42.668;23.364;2023-07-02T05:29:04;94552.41;;;19.24;100.00
28626;BME280;18905;42.668;23.364;2023-07-02T05:31:30;94501.06;;;19.04;100.00
28626;BME280;18905;42.668;23.364;2023-07-02T05:33:56;94482.31;;;19.02;100.00
28626;BME280;18905;42.668;23.364;2023-07-02T05:36:21;94549.78;;;19.56;100.00
28626;BME280;18905;42.668;23.364;2023-07-02T05:38:47;94561.16;;;19.65;100.00
28626;BME280;18905;42.668;23.364;2023-07-02T05:41:19;94562.75;;;19.73;100.00
28626;BME280;18905;42.668;23.364;2023-07-02T05:43:45;94566.66;;;19.79;100.00
28626;BME280;18905;42.668;23.364;2023-07-02T05:46:10;94548.63;;;19.64;100.00
28626;BME280;18905;42.668;23.364;2023-07-02T05:48:37;94555.28;;;19.73;100.00
28626;BME280;18905;42.668;23.364;2023-07-02T05:51:02;94551.44;;;19.95;100.00
28626;BME280;18905;42.668;23.364;2023-07-02T05:53:28;94572.56;;;19.91;100.00
28626;BME280;18905;42.668;23.364;2023-07-02T05:55:53;94545.94;;;19.74;100.00
28626;BME280;18905;42.668;23.364;2023-07-02T05:58:19;94572.09;;;19.68;100.00
28626;BME280;18905;42.668;23.364;2023-07-02T06:00:44;94574.84;;;19.65;100.00
28626;BME280;18905;42.668;23.364;2023-07-02T06:03:17;94553.38;;;19.88;100.00
28626;BME280;18905;42.668;23.364;2023-07-02T06:05:48;94522.09;;;19.92;100.00
28626;BME280;18905;42.668;23.364;2023-07-02T06:08:17;94533.88;;;20.42;100.00
28626;BME280;18905;42.668;23.364;2023-07-02T06:10:45;94554.25;;;20.65;100.00
28626;BME280;18905;42.668;23.364;2023-07-02T06:13:11;94541.28;;;20.69;100.00
28626;BME280;18905;42.668;23.364;2023-07-02T06:15:36;94521.31;;;20.69;100.00
28626;BME280;18905;42.668;23.364;2023-07-02T06:18:02;94550.66;;;20.97;100.00
28626;BME280;18905;42.668;23.364;2023-07-02T06:20:27;94537.34;;;20.92;100.00
28626;BME280;18905;42.668;23.364;2023-07-02T06:22:52;94483.66;;;20.69;100.00
28626;BME280;18905;42.668;23.364;2023-07-02T06:25:18;94513.84;;;20.80;100.00
28626;BME280;18905;42.668;23.364;2023-07-02T06:27:43;94522.06;;;20.98;100.00
28626;BME280;18905;42.668;23.364;2023-07-02T06:30:09;94515.00;;;20.86;100.00
28626;BME280;18905;42.668;23.364;2023-07-02T06:32:35;94537.00;;;20.26;100.00
28626;BME280;18905;42.668;23.364;2023-07-02T06:35:01;94482.94;;;20.51;100.00
28626;BME280;18905;42.668;23.364;2023-07-02T06:37:26;94499.31;;;20.90;100.00
28626;BME280;18905;42.668;23.364;2023-07-02T06:39:51;94507.16;;;20.99;100.00
28626;BME280;18905;42.668;23.364;2023-07-02T06:42:17;94528.53;;;21.49;100.00
28626;BME280;18905;42.668;23.364;2023-07-02T06:44:43;94506.88;;;21.65;100.00
28626;BME280;18905;42.668;23.364;2023-07-02T06:47:08;94507.19;;;21.81;100.00
28626;BME280;18905;42.668;23.364;2023-07-02T06:49:34;94530.09;;;22.19;100.00
28626;BME280;18905;42.668;23.364;2023-07-02T06:51:59;94531.00;;;22.02;100.00
28626;BME280;18905;42.668;23.364;2023-07-02T06:54:27;94480.72;;;21.40;100.00
28626;BME280;18905;42.668;23.364;2023-07-02T06:56:53;94519.75;;;21.82;100.00
28626;BME280;18905;42.668;23.364;2023-07-02T06:59:20;94515.28;;;22.06;100.00
28626;BME280;18905;42.668;23.364;2023-07-02T07:01:45;94506.97;;;22.13;100.00
28626;BME280;18905;42.668;23.364;2023-07-02T07:04:11;94509.66;;;21.62;100.00
28626;BME280;18905;42.668;23.364;2023-07-02T07:06:36;94518.22;;;21.67;100.00
28626;BME280;18905;42.668;23.364;2023-07-02T07:09:02;94530.41;;;21.66;100.00
28626;BME280;18905;42.668;23.364;2023-07-02T07:11:27;94533.16;;;21.73;100.00
28626;BME280;18905;42.668;23.364;2023-07-02T07:13:53;94531.53;;;21.83;100.00
28626;BME280;18905;42.668;23.364;2023-07-02T07:16:18;94480.59;;;21.64;100.00
28626;BME280;18905;42.668;23.364;2023-07-02T07:18:44;94522.91;;;22.35;100.00
28626;BME280;18905;42.668;23.364;2023-07-02T07:21:09;94496.19;;;21.85;100.00
28626;BME280;18905;42.668;23.364;2023-07-02T07:23:35;94520.41;;;22.55;100.00
28626;BME280;18905;42.668;23.364;2023-07-02T07:26:00;94521.09;;;22.66;100.00
28626;BME280;18905;42.668;23.364;2023-07-02T07:28:26;94495.56;;;22.65;100.00
28626;BME280;18905;42.668;23.364;2023-07-02T07:30:51;94527.78;;;23.05;100.00
28626;BME280;18905;42.668;23.364;2023-07-02T07:33:16;94503.97;;;22.88;100.00
28626;BME280;18905;42.668;23.364;2023-07-02T07:35:42;94509.03;;;22.93;100.00
28626;BME280;18905;42.668;23.364;2023-07-02T07:38:07;94511.09;;;22.82;100.00
28626;BME280;18905;42.668;23.364;2023-07-02T07:40:33;94499.69;;;22.40;100.00
28626;BME280;18905;42.668;23.364;2023-07-02T07:42:58;94517.53;;;22.69;100.00
28626;BME280;18905;42.668;23.364;2023-07-02T07:45:23;94514.44;;;22.63;100.00
28626;BME280;18905;42.668;23.364;2023-07-02T07:47:49;94501.28;;;22.85;100.00
28626;BME280;18905;42.668;23.364;2023-07-02T07:50:14;94487.25;;;22.69;100.00
28626;BME280;18905;42.668;23.364;2023-07-02T07:52:40;94490.28;;;22.34;100.00
28626;BME280;18905;42.668;23.364;2023-07-02T07:55:06;94507.16;;;22.39;100.00
28626;BME280;18905;42.668;23.364;2023-07-02T07:59:58;94518.94;;;22.40;100.00
28626;BME280;18905;42.668;23.364;2023-07-02T08:02:23;94508.28;;;22.49;100.00
28626;BME280;18905;42.668;23.364;2023-07-02T08:04:49;94442.44;;;22.28;100.00
28626;BME280;18905;42.668;23.364;2023-07-02T08:07:14;94516.00;;;23.05;100.00
28626;BME280;18905;42.668;23.364;2023-07-02T08:09:39;94524.81;;;23.26;100.00
28626;BME280;18905;42.668;23.364;2023-07-02T08:12:05;94513.25;;;23.05;100.00
28626;BME280;18905;42.668;23.364;2023-07-02T08:14:31;94502.38;;;22.91;100.00
28626;BME280;18905;42.668;23.364;2023-07-02T08:16:56;94512.75;;;23.13;100.00
28626;BME280;18905;42.668;23.364;2023-07-02T08:19:21;94521.19;;;23.66;100.00
28626;BME280;18905;42.668;23.364;2023-07-02T08:21:47;94496.91;;;23.24;100.00
28626;BME280;18905;42.668;23.364;2023-07-02T08:24:13;94486.81;;;23.11;100.00
28626;BME280;18905;42.668;23.364;2023-07-02T08:26:38;94510.19;;;23.33;100.00
28626;BME280;18905;42.668;23.364;2023-07-02T08:29:04;94475.06;;;23.40;100.00
28626;BME280;18905;42.668;23.364;2023-07-02T08:31:29;94468.22;;;23.22;100.00
28626;BME280;18905;42.668;23.364;2023-07-02T08:33:55;94510.56;;;23.65;100.00
28626;BME280;18905;42.668;23.364;2023-07-02T08:36:20;94493.75;;;24.12;100.00
28626;BME280;18905;42.668;23.364;2023-07-02T08:38:45;94494.75;;;23.99;100.00
28626;BME280;18905;42.668;23.364;2023-07-02T08:41:12;94495.00;;;24.34;100.00
28626;BME280;18905;42.668;23.364;2023-07-02T08:43:37;94476.16;;;23.76;100.00
28626;BME280;18905;42.668;23.364;2023-07-02T08:46:03;94500.72;;;23.94;100.00
28626;BME280;18905;42.668;23.364;2023-07-02T08:48:28;94482.72;;;23.86;100.00
28626;BME280;18905;42.668;23.364;2023-07-02T08:50:55;94506.72;;;24.15;100.00
28626;BME280;18905;42.668;23.364;2023-07-02T08:53:21;94484.94;;;24.21;100.00
28626;BME280;18905;42.668;23.364;2023-07-02T08:55:50;94510.84;;;24.53;100.00
28626;BME280;18905;42.668;23.364;2023-07-02T08:58:16;94502.50;;;25.22;100.00
28626;BME280;18905;42.668;23.364;2023-07-02T09:01:08;94493.00;;;25.23;100.00
28626;BME280;18905;42.668;23.364;2023-07-02T09:03:34;94492.03;;;25.14;100.00
28626;BME280;18905;42.668;23.364;2023-07-02T09:06:02;94487.72;;;24.70;100.00
28626;BME280;18905;42.668;23.364;2023-07-02T09:08:28;94492.94;;;24.65;100.00
28626;BME280;18905;42.668;23.364;2023-07-02T09:10:54;94485.84;;;25.06;100.00
28626;BME280;18905;42.668;23.364;2023-07-02T09:13:29;94487.25;;;24.95;100.00
28626;BME280;18905;42.668;23.364;2023-07-02T09:15:55;94471.38;;;24.99;100.00
28626;BME280;18905;42.668;23.364;2023-07-02T09:18:22;94471.94;;;24.90;100.00
28626;BME280;18905;42.668;23.364;2023-07-02T09:20:51;94489.53;;;25.00;100.00
28626;BME280;18905;42.668;23.364;2023-07-02T09:23:16;94460.59;;;24.65;100.00
28626;BME280;18905;42.668;23.364;2023-07-02T09:25:42;94492.00;;;24.94;100.00
28626;BME280;18905;42.668;23.364;2023-07-02T09:28:21;94466.28;;;24.78;100.00
28626;BME280;18905;42.668;23.364;2023-07-02T09:30:57;94489.72;;;25.32;100.00
28626;BME280;18905;42.668;23.364;2023-07-02T09:33:24;94472.06;;;25.65;100.00
28626;BME280;18905;42.668;23.364;2023-07-02T09:35:50;94476.06;;;25.80;100.00
28626;BME280;18905;42.668;23.364;2023-07-02T09:38:18;94468.59;;;25.61;100.00
28626;BME280;18905;42.668;23.364;2023-07-02T09:40:46;94473.13;;;25.12;100.00
28626;BME280;18905;42.668;23.364;2023-07-02T09:43:13;94476.69;;;25.52;100.00
28626;BME280;18905;42.668;23.364;2023-07-02T09:45:43;94469.81;;;25.76;100.00
28626;BME280;18905;42.668;23.364;2023-07-02T09:48:08;94466.38;;;26.23;100.00
28626;BME280;18905;42.668;23.364;2023-07-02T09:50:35;94458.69;;;26.31;96.58
28626;BME280;18905;42.668;23.364;2023-07-02T09:53:03;94467.47;;;27.06;100.00
28626;BME280;18905;42.668;23.364;2023-07-02T09:55:28;94477.75;;;27.62;91.30
28626;BME280;18905;42.668;23.364;2023-07-02T09:57:54;94464.63;;;28.04;82.95
28626;BME280;18905;42.668;23.364;2023-07-02T10:00:19;94476.63;;;27.60;88.84
28626;BME280;18905;42.668;23.364;2023-07-02T10:02:49;94478.47;;;27.38;85.67
28626;BME280;18905;42.668;23.364;2023-07-02T10:05:29;94469.44;;;27.05;90.94
28626;BME280;18905;42.668;23.364;2023-07-02T10:07:56;94468.13;;;27.67;88.13
28626;BME280;18905;42.668;23.364;2023-07-02T10:10:31;94469.50;;;28.12;84.37
28626;BME280;18905;42.668;23.364;2023-07-02T10:12:57;94463.09;;;28.53;95.46
28626;BME280;18905;42.668;23.364;2023-07-02T10:15:27;94460.50;;;28.71;91.03
28626;BME280;18905;42.668;23.364;2023-07-02T10:17:57;94448.00;;;29.01;95.31
28626;BME280;18905;42.668;23.364;2023-07-02T10:20:39;94433.25;;;29.34;97.15
28626;BME280;18905;42.668;23.364;2023-07-02T10:23:07;94442.50;;;28.97;79.45
28626;BME280;18905;42.668;23.364;2023-07-02T10:25:35;94441.41;;;28.35;84.66
28626;BME280;18905;42.668;23.364;2023-07-02T10:28:13;94431.13;;;28.83;87.39
28626;BME280;18905;42.668;23.364;2023-07-02T10:30:39;94430.53;;;29.00;88.53
28626;BME280;18905;42.668;23.364;2023-07-02T10:33:11;94419.88;;;28.39;84.67
28626;BME280;18905;42.668;23.364;2023-07-02T10:35:38;94419.66;;;28.34;84.67
28626;BME280;18905;42.668;23.364;2023-07-02T10:38:05;94417.91;;;28.02;85.04
28626;BME280;18905;42.668;23.364;2023-07-02T10:40:33;94391.59;;;27.82;85.48
28626;BME280;18905;42.668;23.364;2023-07-02T10:42:59;94418.81;;;27.46;87.02
28626;BME280;18905;42.668;23.364;2023-07-02T10:45:32;94414.34;;;27.23;85.69
28626;BME280;18905;42.668;23.364;2023-07-02T10:47:58;94423.28;;;27.56;85.71
28626;BME280;18905;42.668;23.364;2023-07-02T10:50:24;94431.31;;;27.79;87.54
28626;BME280;18905;42.668;23.364;2023-07-02T10:52:50;94381.03;;;28.14;86.91
28626;BME280;18905;42.668;23.364;2023-07-02T10:55:19;94404.19;;;28.92;78.72
28626;BME280;18905;42.668;23.364;2023-07-02T10:57:47;94417.75;;;29.24;74.34
28626;BME280;18905;42.668;23.364;2023-07-02T11:00:13;94410.06;;;28.73;71.44
28626;BME280;18905;42.668;23.364;2023-07-02T11:02:39;94416.44;;;28.48;77.73
28626;BME280;18905;42.668;23.364;2023-07-02T11:05:06;94415.69;;;28.82;85.22
28626;BME280;18905;42.668;23.364;2023-07-02T11:07:33;94409.47;;;29.33;83.07
28626;BME280;18905;42.668;23.364;2023-07-02T11:09:58;94402.56;;;29.16;76.01
28626;BME280;18905;42.668;23.364;2023-07-02T11:12:30;94402.66;;;28.57;74.68
28626;BME280;18905;42.668;23.364;2023-07-02T11:15:09;94392.97;;;28.62;77.47
28626;BME280;18905;42.668;23.364;2023-07-02T11:17:35;94402.66;;;29.13;77.56
28626;BME280;18905;42.668;23.364;2023-07-02T11:20:01;94401.72;;;29.28;71.50
28626;BME280;18905;42.668;23.364;2023-07-02T11:22:35;94389.38;;;28.74;70.55
28626;BME280;18905;42.668;23.364;2023-07-02T11:25:16;94395.94;;;29.23;77.05
28626;BME280;18905;42.668;23.364;2023-07-02T11:27:42;94391.88;;;29.88;78.48
28626;BME280;18905;42.668;23.364;2023-07-02T11:30:09;94401.72;;;30.50;76.29
28626;BME280;18905;42.668;23.364;2023-07-02T11:32:50;94392.53;;;30.41;71.86
28626;BME280;18905;42.668;23.364;2023-07-02T11:35:15;94393.31;;;29.62;65.16
28626;BME280;18905;42.668;23.364;2023-07-02T11:37:41;94404.81;;;29.09;61.42
28626;BME280;18905;42.668;23.364;2023-07-02T11:40:07;94402.25;;;28.67;71.20
28626;BME280;18905;42.668;23.364;2023-07-02T11:42:33;94413.00;;;27.28;83.14
28626;BME280;18905;42.668;23.364;2023-07-02T11:44:58;94411.84;;;25.88;96.79
28626;BME280;18905;42.668;23.364;2023-07-02T11:47:24;94403.00;;;26.29;100.00
28626;BME280;18905;42.668;23.364;2023-07-02T11:49:50;94401.38;;;26.92;99.12
28626;BME280;18905;42.668;23.364;2023-07-02T11:52:15;94392.41;;;26.72;100.00
28626;BME280;18905;42.668;23.364;2023-07-02T11:54:41;94402.41;;;25.70;100.00
28626;BME280;18905;42.668;23.364;2023-07-02T11:57:06;94410.78;;;26.02;100.00
28626;BME280;18905;42.668;23.364;2023-07-02T11:59:31;94399.63;;;25.54;100.00
28626;BME280;18905;42.668;23.364;2023-07-02T12:01:57;94410.88;;;25.27;100.00
28626;BME280;18905;42.668;23.364;2023-07-02T12:04:22;94409.00;;;25.76;100.00
28626;BME280;18905;42.668;23.364;2023-07-02T12:06:48;94409.03;;;26.40;100.00
28626;BME280;18905;42.668;23.364;2023-07-02T12:09:13;94408.88;;;26.15;100.00
28626;BME280;18905;42.668;23.364;2023-07-02T12:11:38;94413.09;;;26.67;100.00
28626;BME280;18905;42.668;23.364;2023-07-02T12:14:04;94421.47;;;26.64;91.93
28626;BME280;18905;42.668;23.364;2023-07-02T12:16:29;94425.81;;;25.65;96.75
28626;BME280;18905;42.668;23.364;2023-07-02T12:18:54;94428.91;;;25.87;98.43
28626;BME280;18905;42.668;23.364;2023-07-02T12:21:20;94432.56;;;26.16;100.00
28626;BME280;18905;42.668;23.364;2023-07-02T12:23:45;94431.50;;;25.58;99.71
28626;BME280;18905;42.668;23.364;2023-07-02T12:26:11;94427.25;;;24.76;100.00
28626;BME280;18905;42.668;23.364;2023-07-02T12:28:36;94432.28;;;24.61;100.00
28626;BME280;18905;42.668;23.364;2023-07-02T12:31:01;94410.31;;;24.08;100.00
28626;BME280;18905;42.668;23.364;2023-07-02T12:33:27;94438.25;;;24.79;100.00
28626;BME280;18905;42.668;23.364;2023-07-02T12:35:53;94435.22;;;24.93;100.00
28626;BME280;18905;42.668;23.364;2023-07-02T12:38:18;94437.78;;;24.38;100.00
28626;BME280;18905;42.668;23.364;2023-07-02T12:40:44;94432.06;;;24.49;100.00